Croydon, Utah
Current Conditions -  °F | °C
As of 12:08 PM on Tuesday 21 Oct 2014 (Local Time) from KHIF Reporting Station
Overcast Overcast  
Wind Chill: 59°   Ceiling: 6500
Heat Index: 59°   Visibility: 10mi
Dew Point: 41°   Wind: 16mph
Humidity: 51%   Direction: 340°NNW
Pressure: 30.01"   Gusts: NA
Location:  41.07°N, 111.51°W
Report Text: KHIF 211808Z 34014KT 10SM OVC065 15/05 A3001 RMK AO2A LTG DSNT NW MIDFLD WND 320/17KT HVY FU N OV OGDEN
Loading
Personal Weather Stations






























Interactive Weather Map New forecast layout! Learn more

10-Day Weather Forecast

Advertisements
Track Severe Weather on mobile